createdAt,value
2018-10-12T00:02:59.667Z,29.77
2018-10-12T00:08:04.425Z,35.77
2018-10-12T00:13:08.593Z,37.63
2018-10-12T00:18:12.860Z,30.43
2018-10-12T00:23:17.142Z,29.87
2018-10-12T00:28:20.893Z,31.37
2018-10-12T00:33:24.804Z,25.47
2018-10-12T00:38:29.540Z,24.10
2018-10-12T00:43:32.958Z,25.37
2018-10-12T00:48:37.089Z,22.30
2018-10-12T00:53:40.865Z,25.20
2018-10-12T00:58:44.688Z,25.37
2018-10-12T01:03:48.851Z,34.37
2018-10-12T01:08:52.411Z,27.57
2018-10-12T01:13:56.321Z,26.43
2018-10-12T01:19:00.080Z,35.67
2018-10-12T01:24:04.033Z,57.70
2018-10-12T01:29:07.805Z,38.57
2018-10-12T01:34:11.537Z,35.00
2018-10-12T01:39:15.028Z,38.97
2018-10-12T01:44:22.972Z,29.67
2018-10-12T01:49:28.603Z,28.83
2018-10-12T01:54:32.036Z,29.50
2018-10-12T01:59:35.436Z,28.10
2018-10-12T02:04:39.285Z,34.33
2018-10-12T02:09:42.921Z,25.50
2018-10-12T02:14:46.557Z,26.70
2018-10-12T02:19:50.075Z,27.07
2018-10-12T02:24:53.840Z,25.73
2018-10-12T02:29:57.517Z,29.23
2018-10-12T02:35:00.996Z,25.83
2018-10-12T02:40:04.580Z,29.57
2018-10-12T02:45:08.357Z,22.10
2018-10-12T02:50:12.301Z,34.07
2018-10-12T02:55:15.845Z,24.23
2018-10-12T03:00:19.480Z,25.50
2018-10-12T03:05:27.973Z,22.70
2018-10-12T03:10:33.227Z,25.10
2018-10-12T03:15:36.751Z,25.23
2018-10-12T03:20:41.704Z,27.20
2018-10-12T03:25:45.137Z,24.20
2018-10-12T03:30:50.156Z,29.00
2018-10-12T03:35:54.718Z,26.70
2018-10-12T03:40:58.403Z,27.20
2018-10-12T03:46:01.895Z,28.33
2018-10-12T03:51:05.634Z,26.23
2018-10-12T03:56:09.946Z,24.60
2018-10-12T04:01:13.389Z,23.90
2018-10-12T04:06:17.561Z,25.20
2018-10-12T04:11:20.967Z,25.77
2018-10-12T04:16:24.578Z,25.20
2018-10-12T04:21:31.854Z,24.70
2018-10-12T04:26:36.972Z,24.07
2018-10-12T04:31:40.822Z,25.20
2018-10-12T04:36:44.658Z,25.47
2018-10-12T04:41:48.585Z,33.73
2018-10-12T04:46:52.597Z,25.93
2018-10-12T04:51:57.537Z,25.33
2018-10-12T04:57:01.213Z,25.80
2018-10-12T05:02:04.629Z,26.93
2018-10-12T05:07:08.892Z,23.57
2018-10-12T05:12:12.678Z,26.30
2018-10-12T05:17:16.301Z,28.10
2018-10-12T05:22:24.668Z,26.50
2018-10-12T05:27:28.712Z,24.80
2018-10-12T05:32:32.094Z,27.33
2018-10-12T05:37:40.572Z,27.20
2018-10-12T05:42:44.354Z,24.00
2018-10-12T05:47:47.737Z,27.50
2018-10-12T05:52:51.099Z,26.80
2018-10-12T05:57:54.512Z,27.60
2018-10-12T06:02:57.833Z,28.90
2018-10-12T06:08:01.493Z,29.10
2018-10-12T06:13:05.424Z,27.97
2018-10-12T06:18:10.183Z,26.87
2018-10-12T06:23:13.517Z,26.73
2018-10-12T06:28:16.933Z,25.13
2018-10-12T06:33:23.202Z,27.17
2018-10-12T06:38:26.823Z,26.80
2018-10-12T06:43:30.154Z,31.60
2018-10-12T06:48:33.769Z,28.63
2018-10-12T06:53:37.438Z,32.60
2018-10-12T06:58:40.727Z,26.57
2018-10-12T07:03:44.208Z,22.70
2018-10-12T07:08:47.961Z,27.83
2018-10-12T07:13:51.289Z,25.30
2018-10-12T07:18:55.249Z,28.07
2018-10-12T07:23:58.577Z,30.97
2018-10-12T07:29:01.880Z,28.33
2018-10-12T07:34:05.185Z,26.43
2018-10-12T07:39:08.864Z,27.33
2018-10-12T07:44:12.177Z,30.40
2018-10-12T07:49:15.756Z,26.67
2018-10-12T07:54:20.448Z,29.67
2018-10-12T07:59:23.744Z,27.27
2018-10-12T08:04:27.325Z,29.73
2018-10-12T08:09:31.040Z,29.83
2018-10-12T08:14:34.397Z,23.87
2018-10-12T08:19:37.777Z,27.03
2018-10-12T08:24:56.280Z,22.27
2018-10-12T08:29:59.749Z,30.87
2018-10-12T08:35:03.051Z,29.50
2018-10-12T08:40:09.722Z,24.10
2018-10-12T08:45:13.552Z,29.67
2018-10-12T08:50:16.836Z,27.00
2018-10-12T08:55:20.498Z,24.83
2018-10-12T09:00:23.774Z,29.73
2018-10-12T09:05:27.118Z,32.27
2018-10-12T09:10:30.741Z,26.77
2018-10-12T09:15:34.129Z,26.27
2018-10-12T09:20:37.463Z,27.60
2018-10-12T09:25:41.048Z,20.80
2018-10-12T09:30:44.404Z,25.27
2018-10-12T09:35:47.705Z,21.57
2018-10-12T09:40:51.227Z,21.47
2018-10-12T09:45:54.499Z,25.07
2018-10-12T09:50:57.791Z,24.27
2018-10-12T09:56:01.152Z,19.67
2018-10-12T10:01:10.160Z,21.67
2018-10-12T10:06:13.472Z,27.40
2018-10-12T10:11:19.746Z,18.60
2018-10-12T10:16:23.076Z,23.07
2018-10-12T10:21:26.392Z,24.10
2018-10-12T10:26:29.736Z,25.60
2018-10-12T10:31:34.037Z,16.63
2018-10-12T10:36:37.754Z,16.90
2018-10-12T10:41:41.388Z,16.87
2018-10-12T10:46:44.672Z,15.67
2018-10-12T10:51:48.446Z,18.17
2018-10-12T10:56:51.903Z,13.90
2018-10-12T11:01:55.228Z,13.03
2018-10-12T11:06:58.717Z,11.07
2018-10-12T11:12:02.139Z,11.03
2018-10-12T11:17:05.416Z,12.97
2018-10-12T11:22:08.782Z,14.90
2018-10-12T11:27:12.141Z,14.50
2018-10-12T11:32:15.502Z,9.13
2018-10-12T11:37:18.851Z,11.27
2018-10-12T11:42:22.177Z,9.60
2018-10-12T11:47:25.940Z,7.70
2018-10-12T11:52:29.561Z,10.30
2018-10-12T11:57:33.028Z,9.80
2018-10-12T12:02:36.325Z,10.20
2018-10-12T12:07:39.631Z,8.80
2018-10-12T12:12:42.968Z,8.40
2018-10-12T12:17:46.650Z,7.73
2018-10-12T12:22:49.974Z,9.30
2018-10-12T12:27:53.460Z,7.07
2018-10-12T12:32:56.815Z,6.00
2018-10-12T12:38:00.140Z,8.60
2018-10-12T12:43:03.881Z,4.90
2018-10-12T12:48:07.856Z,6.20
2018-10-12T12:53:11.058Z,7.67
2018-10-12T12:58:14.416Z,6.27
2018-10-12T13:03:17.776Z,7.30
2018-10-12T13:08:21.135Z,5.47
2018-10-12T13:13:24.570Z,5.60
2018-10-12T13:18:27.868Z,5.40
2018-10-12T13:23:31.553Z,5.10
2018-10-12T13:28:34.920Z,6.10
2018-10-12T13:33:38.275Z,5.03
2018-10-12T13:38:41.556Z,5.00
2018-10-12T13:43:44.933Z,4.70
2018-10-12T13:48:48.239Z,4.90
2018-10-12T13:53:51.535Z,4.57
2018-10-12T13:58:54.908Z,5.20
2018-10-12T14:03:58.499Z,3.70
2018-10-12T14:09:01.859Z,5.73
2018-10-12T14:14:05.469Z,5.30
2018-10-12T14:19:08.948Z,5.97
2018-10-12T14:24:12.229Z,5.00
2018-10-12T14:29:15.645Z,5.90
2018-10-12T14:34:19.268Z,5.73
2018-10-12T14:39:22.668Z,5.20
2018-10-12T14:44:26.220Z,6.10
2018-10-12T14:49:29.414Z,5.80
2018-10-12T14:54:36.584Z,6.83
2018-10-12T14:59:40.850Z,7.40
2018-10-12T15:04:47.807Z,5.80
2018-10-12T15:09:51.906Z,6.60
2018-10-12T15:15:10.105Z,6.17
2018-10-12T15:20:13.408Z,6.40
2018-10-12T15:25:16.792Z,6.37
2018-10-12T15:30:20.443Z,6.37
2018-10-12T15:35:24.005Z,6.30
2018-10-12T15:40:27.346Z,5.77
2018-10-12T15:45:30.697Z,6.63
2018-10-12T15:50:34.070Z,7.60
2018-10-12T15:55:37.481Z,8.07
2018-10-12T16:00:40.863Z,6.97
2018-10-12T16:05:44.212Z,7.17
2018-10-12T16:10:47.562Z,8.03
2018-10-12T16:15:51.041Z,8.70
2018-10-12T16:20:54.501Z,9.63
2018-10-12T16:26:19.494Z,9.70
2018-10-12T16:31:22.879Z,8.80
2018-10-12T16:36:28.985Z,8.87
2018-10-12T16:41:32.309Z,8.83
2018-10-12T16:46:35.925Z,9.33
2018-10-12T16:51:40.090Z,10.57
2018-10-12T16:56:43.550Z,9.67
2018-10-12T17:01:49.185Z,9.63
2018-10-12T17:06:52.628Z,8.93
2018-10-12T17:11:56.192Z,8.50
2018-10-12T17:17:00.003Z,8.80
2018-10-12T17:22:08.771Z,9.83
2018-10-12T17:27:13.596Z,9.73
2018-10-12T17:32:17.321Z,9.20
2018-10-12T17:37:20.772Z,9.40
2018-10-12T17:42:24.417Z,10.30
2018-10-12T17:47:30.118Z,9.30
2018-10-12T17:52:33.478Z,9.87
2018-10-12T17:57:38.289Z,8.87
2018-10-12T18:02:48.187Z,9.73
2018-10-12T18:07:52.435Z,10.20
2018-10-12T18:12:55.830Z,8.77
2018-10-12T18:18:00.021Z,10.10
2018-10-12T18:23:06.206Z,9.07
2018-10-12T18:28:11.481Z,9.90
2018-10-12T18:33:15.051Z,9.40
2018-10-12T18:38:18.878Z,10.70
2018-10-12T18:43:22.629Z,9.70
2018-10-12T18:48:26.826Z,11.37
2018-10-12T18:53:30.396Z,10.23
2018-10-12T18:58:34.327Z,12.30
2018-10-12T19:03:39.706Z,9.43
2018-10-12T19:08:47.090Z,10.40
2018-10-12T19:13:51.335Z,9.70
2018-10-12T19:18:55.811Z,10.77
2018-10-12T19:23:59.397Z,10.23
2018-10-12T19:29:03.660Z,11.40
2018-10-12T19:34:07.391Z,10.80
2018-10-12T19:39:11.534Z,10.00
2018-10-12T19:44:15.345Z,9.93
2018-10-12T19:49:18.920Z,11.33
2018-10-12T19:54:23.510Z,9.97
2018-10-12T19:59:27.387Z,12.00
2018-10-12T20:04:32.009Z,9.97
2018-10-12T20:09:39.625Z,10.20
2018-10-12T20:14:53.109Z,10.70
2018-10-12T20:19:58.136Z,14.17
2018-10-12T20:25:01.931Z,11.10
2018-10-12T20:30:05.816Z,11.70
2018-10-12T20:35:09.363Z,9.60
2018-10-12T20:40:12.821Z,9.93
2018-10-12T20:45:16.344Z,12.90
2018-10-12T20:50:19.898Z,12.97
2018-10-12T20:55:23.527Z,10.27
2018-10-12T21:00:27.326Z,10.57
2018-10-12T21:05:30.658Z,12.40
2018-10-12T21:10:34.058Z,10.30
2018-10-12T21:15:37.453Z,10.70
2018-10-12T21:20:40.857Z,9.63
2018-10-12T21:25:44.177Z,9.20
2018-10-12T21:30:48.138Z,9.77
2018-10-12T21:35:55.350Z,11.07
2018-10-12T21:40:58.876Z,10.40
2018-10-12T21:46:03.143Z,8.17
2018-10-12T21:51:06.464Z,10.90
2018-10-12T21:56:09.785Z,9.27
2018-10-12T22:01:18.035Z,11.80
2018-10-12T22:06:22.317Z,11.73
2018-10-12T22:11:25.625Z,8.93
2018-10-12T22:16:28.984Z,10.30
2018-10-12T22:21:32.848Z,11.13
2018-10-12T22:26:40.899Z,10.43
2018-10-12T22:31:44.964Z,10.17
2018-10-12T22:36:48.949Z,8.13
2018-10-12T22:41:52.505Z,10.77
2018-10-12T22:46:55.997Z,9.20
2018-10-12T22:51:59.517Z,10.73
2018-10-12T22:57:03.155Z,10.77
2018-10-12T23:02:06.569Z,10.80
2018-10-12T23:07:10.293Z,9.60
2018-10-12T23:12:13.585Z,9.90
2018-10-12T23:17:17.296Z,10.20
2018-10-12T23:22:20.685Z,9.80
2018-10-12T23:27:28.563Z,10.17
2018-10-12T23:32:32.869Z,8.90
2018-10-12T23:37:38.738Z,9.87
2018-10-12T23:42:42.644Z,9.67
2018-10-12T23:47:46.161Z,9.23
2018-10-12T23:52:49.856Z,9.30
2018-10-12T23:57:53.317Z,9.30
